Time,TemperatureF,DewpointF,PressureIn,WindDirection,WindDirectionDegrees,WindSpeedMPH,WindSpeedGustMPH,Humidity,HourlyPrecipIn,Conditions,Clouds,dailyrainin,SoftwareType,DateUTC
2013-05-24 00:00:00,64.2,63.0,29.80,East,92,3.0,6.0,96,0.00,,,0.00,Wunderground v.1.13,2013-05-24 04:00:00,
2013-05-24 00:05:00,64.2,63.0,29.80,SSE,163,4.0,4.0,96,0.00,,,0.00,Wunderground v.1.13,2013-05-24 04:05:00,
2013-05-24 00:10:00,64.2,63.0,29.79,East,79,4.0,4.0,96,0.00,,,0.00,Wunderground v.1.13,2013-05-24 04:10:00,
2013-05-24 00:15:00,64.2,63.0,29.79,South,190,3.0,4.0,96,0.00,,,0.00,Wunderground v.1.13,2013-05-24 04:15:00,
2013-05-24 00:20:00,64.2,63.0,29.79,SSE,155,2.0,2.0,96,0.00,,,0.00,Wunderground v.1.13,2013-05-24 04:20:00,
2013-05-24 00:25:00,64.3,63.1,29.79,SSW,211,3.0,3.0,96,0.00,,,0.00,Wunderground v.1.13,2013-05-24 04:25:00,
2013-05-24 00:30:00,64.3,63.1,29.79,South,186,3.0,3.0,96,0.00,,,0.01,Wunderground v.1.13,2013-05-24 04:30:00,
2013-05-24 00:40:00,64.3,63.1,29.78,South,188,2.0,2.0,96,0.11,,,0.02,Wunderground v.1.13,2013-05-24 04:40:00,
2013-05-24 00:45:00,64.3,63.1,29.78,SW,229,2.0,6.0,96,0.06,,,0.03,Wunderground v.1.13,2013-05-24 04:45:00,
2013-05-24 00:50:00,64.2,63.0,29.78,SSE,164,3.0,5.0,96,0.15,,,0.04,Wunderground v.1.13,2013-05-24 04:50:00,
2013-05-24 01:00:00,64.1,62.9,29.78,SSE,153,3.0,3.0,96,0.05,,,0.04,Wunderground v.1.13,2013-05-24 05:00:00,
2013-05-24 01:05:00,64.1,62.9,29.77,SSE,158,3.0,8.0,96,0.06,,,0.06,Wunderground v.1.13,2013-05-24 05:05:00,
2013-05-24 01:15:00,64.0,63.1,29.77,SW,217,3.0,6.0,97,0.05,,,0.06,Wunderground v.1.13,2013-05-24 05:15:00,
2013-05-24 01:20:00,63.9,63.0,29.77,SW,224,2.0,5.0,97,0.23,,,0.08,Wunderground v.1.13,2013-05-24 05:20:00,
2013-05-24 01:25:00,63.9,63.0,29.76,South,172,2.0,3.0,97,0.30,,,0.10,Wunderground v.1.13,2013-05-24 05:25:00,
2013-05-24 01:35:00,63.8,62.9,29.77,SSE,164,3.0,3.0,97,0.08,,,0.11,Wunderground v.1.13,2013-05-24 05:35:00,
2013-05-24 01:40:00,63.7,62.8,29.76,West,262,3.0,3.0,97,0.06,,,0.11,Wunderground v.1.13,2013-05-24 05:40:00,
2013-05-24 01:45:00,63.7,62.5,29.76,SSE,161,3.0,3.0,96,0.04,,,0.12,Wunderground v.1.13,2013-05-24 05:45:00,
2013-05-24 01:55:00,63.6,62.4,29.76,South,189,2.0,4.0,96,0.04,,,0.12,Wunderground v.1.13,2013-05-24 05:55:00,
2013-05-24 02:00:00,63.5,62.3,29.75,SW,227,2.0,3.0,96,0.04,,,0.12,Wunderground v.1.13,2013-05-24 06:00:00,
2013-05-24 02:05:00,63.5,62.6,29.75,WSW,241,2.0,2.0,97,0.00,,,0.12,Wunderground v.1.13,2013-05-24 06:05:00,
2013-05-24 02:10:00,63.5,62.6,29.75,WSW,245,3.0,8.0,97,0.00,,,0.13,Wunderground v.1.13,2013-05-24 06:10:00,
2013-05-24 02:20:00,63.4,62.5,29.74,South,184,3.0,3.0,97,0.06,,,0.14,Wunderground v.1.13,2013-05-24 06:20:00,
2013-05-24 02:25:00,63.4,62.5,29.74,SE,144,3.0,8.0,97,0.33,,,0.16,Wunderground v.1.13,2013-05-24 06:25:00,
2013-05-24 02:30:00,63.4,62.5,29.74,West,267,2.0,8.0,97,0.22,,,0.19,Wunderground v.1.13,2013-05-24 06:30:00,
2013-05-24 02:35:00,63.4,62.5,29.73,SSW,197,2.0,2.0,97,0.46,,,0.22,Wunderground v.1.13,2013-05-24 06:35:00,
2013-05-24 02:45:00,63.4,62.5,29.73,SSE,164,2.0,2.0,97,0.15,,,0.25,Wunderground v.1.13,2013-05-24 06:45:00,
2013-05-24 02:50:00,63.3,62.4,29.73,SSE,164,3.0,3.0,97,0.11,,,0.26,Wunderground v.1.13,2013-05-24 06:50:00,
2013-05-24 03:00:00,63.3,62.4,29.72,WSW,252,1.0,9.0,97,0.08,,,0.27,Wunderground v.1.13,2013-05-24 07:00:00,
2013-05-24 03:05:00,63.4,62.5,29.72,SSE,148,2.0,2.0,97,0.07,,,0.28,Wunderground v.1.13,2013-05-24 07:05:00,
2013-05-24 03:10:00,63.3,62.4,29.71,SSE,148,2.0,2.0,97,0.07,,,0.28,Wunderground v.1.13,2013-05-24 07:10:00,
2013-05-24 09:50:00,65.2,64.3,29.71,WSW,253,0.0,8.0,97,0.00,,,0.34,Wunderground v.1.13,2013-05-24 13:50:00,
2013-05-24 09:55:00,65.5,64.6,29.71,WSW,253,1.0,1.0,97,0.00,,,0.34,Wunderground v.1.13,2013-05-24 13:55:00,
2013-05-24 10:00:00,65.6,64.4,29.72,WSW,253,1.0,1.0,96,0.00,,,0.34,Wunderground v.1.13,2013-05-24 14:00:00,
2013-05-24 10:05:00,65.6,64.4,29.72,WSW,252,1.0,1.0,96,0.00,,,0.34,Wunderground v.1.13,2013-05-24 14:05:00,
2013-05-24 10:10:00,65.7,64.5,29.72,WSW,251,1.0,1.0,96,0.00,,,0.34,Wunderground v.1.13,2013-05-24 14:10:00,
2013-05-24 10:20:00,65.4,63.9,29.72,WSW,250,1.0,1.0,95,0.00,,,0.34,Wunderground v.1.13,2013-05-24 14:20:00,
2013-05-24 10:25:00,65.8,64.6,29.72,WSW,250,1.0,1.0,96,0.00,,,0.34,Wunderground v.1.13,2013-05-24 14:25:00,
2013-05-24 10:30:00,66.1,64.9,29.72,WSW,250,1.0,1.0,96,0.00,,,0.34,Wunderground v.1.13,2013-05-24 14:30:00,
2013-05-24 10:40:00,66.4,64.6,29.72,WSW,249,1.0,1.0,94,0.00,,,0.34,Wunderground v.1.13,2013-05-24 14:40:00,
2013-05-24 10:45:00,66.6,65.1,29.72,WSW,249,1.0,8.0,95,0.00,,,0.34,Wunderground v.1.13,2013-05-24 14:45:00,
2013-05-24 10:50:00,66.7,64.9,29.73,WSW,249,1.0,8.0,94,0.00,,,0.34,Wunderground v.1.13,2013-05-24 14:50:00,
2013-05-24 11:00:00,66.7,64.6,29.72,WSW,243,1.0,8.0,93,0.00,,,0.34,Wunderground v.1.13,2013-05-24 15:00:00,
2013-05-24 11:05:00,66.6,64.5,29.72,WSW,243,1.0,1.0,93,0.00,,,0.34,Wunderground v.1.13,2013-05-24 15:05:00,
2013-05-24 11:10:00,66.9,65.4,29.72,WSW,243,1.0,1.0,95,0.00,,,0.34,Wunderground v.1.13,2013-05-24 15:10:00,
2013-05-24 11:15:00,66.9,65.1,29.73,WSW,243,0.0,8.0,94,0.00,,,0.34,Wunderground v.1.13,2013-05-24 15:15:00,
2013-05-24 11:25:00,67.1,64.7,29.72,WSW,242,0.0,8.0,92,0.00,,,0.34,Wunderground v.1.13,2013-05-24 15:25:00,
2013-05-24 11:30:00,67.5,65.1,29.72,WSW,243,0.0,8.0,92,0.00,,,0.34,Wunderground v.1.13,2013-05-24 15:30:00,
2013-05-24 11:35:00,67.7,65.3,29.72,WSW,245,1.0,8.0,92,0.00,,,0.34,Wunderground v.1.13,2013-05-24 15:35:00,
2013-05-24 11:45:00,68.0,64.6,29.72,WSW,245,1.0,8.0,89,0.00,,,0.34,Wunderground v.1.13,2013-05-24 15:45:00,
2013-05-24 11:50:00,68.0,64.6,29.72,WSW,245,1.0,8.0,89,0.00,,,0.34,Wunderground v.1.13,2013-05-24 15:50:00,
2013-05-24 11:55:00,68.3,64.9,29.72,WSW,244,1.0,8.0,89,0.00,,,0.34,Wunderground v.1.13,2013-05-24 15:55:00,
2013-05-24 12:05:00,68.3,64.3,29.72,WSW,244,0.0,8.0,87,0.00,,,0.34,Wunderground v.1.13,2013-05-24 16:05:00,
2013-05-24 12:10:00,68.1,63.8,29.72,WSW,244,0.0,8.0,86,0.00,,,0.34,Wunderground v.1.13,2013-05-24 16:10:00,
2013-05-24 12:15:00,68.4,64.0,29.72,WSW,245,0.0,8.0,86,0.00,,,0.34,Wunderground v.1.13,2013-05-24 16:15:00,
2013-05-24 12:20:00,68.6,65.2,29.72,WSW,245,0.0,8.0,89,0.00,,,0.34,Wunderground v.1.13,2013-05-24 16:20:00,
2013-05-24 12:30:00,68.8,64.4,29.72,WSW,245,0.0,8.0,86,0.00,,,0.34,Wunderground v.1.13,2013-05-24 16:30:00,
2013-05-24 12:35:00,69.0,63.6,29.72,WSW,245,1.0,8.0,83,0.00,,,0.34,Wunderground v.1.13,2013-05-24 16:35:00,
2013-05-24 12:40:00,69.2,63.5,29.72,WSW,245,1.0,1.0,82,0.00,,,0.34,Wunderground v.1.13,2013-05-24 16:40:00,
2013-05-24 12:50:00,69.4,65.7,29.72,WSW,246,0.0,8.0,88,0.00,,,0.34,Wunderground v.1.13,2013-05-24 16:50:00,
2013-05-24 12:55:00,69.0,64.0,29.72,SSW,195,0.0,8.0,84,0.00,,,0.34,Wunderground v.1.13,2013-05-24 16:55:00,
2013-05-24 13:00:00,68.7,64.0,29.72,SSW,195,0.0,8.0,85,0.00,,,0.34,Wunderground v.1.13,2013-05-24 17:00:00,
2013-05-24 13:10:00,68.2,63.5,29.71,SSW,195,0.0,8.0,85,0.00,,,0.34,Wunderground v.1.13,2013-05-24 17:10:00,
2013-05-24 13:15:00,68.2,63.5,29.71,SSW,195,0.0,8.0,85,0.00,,,0.34,Wunderground v.1.13,2013-05-24 17:15:00,
2013-05-24 13:20:00,68.5,64.5,29.71,SSW,195,0.0,8.0,87,0.00,,,0.34,Wunderground v.1.13,2013-05-24 17:20:00,
2013-05-24 13:30:00,68.9,63.5,29.71,SSW,196,1.0,1.0,83,0.00,,,0.34,Wunderground v.1.13,2013-05-24 17:30:00,
2013-05-24 13:35:00,69.1,63.4,29.71,SSW,196,1.0,1.0,82,0.00,,,0.34,Wunderground v.1.13,2013-05-24 17:35:00,
2013-05-24 13:40:00,69.8,65.1,29.71,SSW,196,0.0,8.0,85,0.00,,,0.34,Wunderground v.1.13,2013-05-24 17:40:00,
2013-05-24 13:45:00,70.2,65.5,29.71,SSW,195,0.0,8.0,85,0.00,,,0.34,Wunderground v.1.13,2013-05-24 17:45:00,
2013-05-24 13:55:00,71.1,64.6,29.71,SSW,196,1.0,8.0,80,0.00,,,0.34,Wunderground v.1.13,2013-05-24 17:55:00,
2013-05-24 14:00:00,70.9,65.5,29.71,SSW,196,1.0,1.0,83,0.00,,,0.34,Wunderground v.1.13,2013-05-24 18:00:00,
2013-05-24 14:05:00,70.2,64.4,29.71,SSW,196,1.0,1.0,82,0.00,,,0.34,Wunderground v.1.13,2013-05-24 18:05:00,
2013-05-24 14:10:00,69.2,63.8,29.72,WNW,286,1.0,1.0,83,0.00,,,0.34,Wunderground v.1.13,2013-05-24 18:10:00,
2013-05-24 14:20:00,67.1,63.4,29.71,NW,306,0.0,8.0,88,0.00,,,0.34,Wunderground v.1.13,2013-05-24 18:20:00,
2013-05-24 14:25:00,66.9,63.2,29.72,NW,306,0.0,8.0,88,0.00,,,0.34,Wunderground v.1.13,2013-05-24 18:25:00,
2013-05-24 14:30:00,67.1,64.1,29.72,NW,306,0.0,8.0,90,0.00,,,0.34,Wunderground v.1.13,2013-05-24 18:30:00,
2013-05-24 14:40:00,68.3,64.6,29.72,West,261,0.0,8.0,88,0.00,,,0.34,Wunderground v.1.13,2013-05-24 18:40:00,
2013-05-24 14:45:00,68.4,63.7,29.72,NW,313,1.0,1.0,85,0.00,,,0.34,Wunderground v.1.13,2013-05-24 18:45:00,
2013-05-24 14:50:00,68.0,63.7,29.72,West,268,1.0,1.0,86,0.00,,,0.34,Wunderground v.1.13,2013-05-24 18:50:00,
2013-05-24 15:00:00,67.4,62.7,29.72,WNW,294,1.0,8.0,85,0.00,,,0.34,Wunderground v.1.13,2013-05-24 19:00:00,
2013-05-24 15:05:00,67.1,62.1,29.72,NNW,333,1.0,8.0,84,0.00,,,0.34,Wunderground v.1.13,2013-05-24 19:05:00,
2013-05-24 15:10:00,66.7,62.0,29.72,NNW,334,1.0,8.0,85,0.00,,,0.34,Wunderground v.1.13,2013-05-24 19:10:00,
2013-05-24 15:20:00,66.1,60.8,29.71,NNW,337,1.0,1.0,83,0.00,,,0.34,Wunderground v.1.13,2013-05-24 19:20:00,
2013-05-24 15:25:00,66.3,61.7,29.71,NNW,338,1.0,8.0,85,0.00,,,0.34,Wunderground v.1.13,2013-05-24 19:25:00,
2013-05-24 15:30:00,66.6,61.6,29.71,NNW,340,1.0,8.0,84,0.00,,,0.34,Wunderground v.1.13,2013-05-24 19:30:00,
2013-05-24 15:35:00,66.7,61.4,29.72,North,350,1.0,8.0,83,0.00,,,0.34,Wunderground v.1.13,2013-05-24 19:35:00,
2013-05-24 15:45:00,66.5,60.5,29.72,NW,317,1.0,1.0,81,0.00,,,0.34,Wunderground v.1.13,2013-05-24 19:45:00,
2013-05-24 15:50:00,66.3,60.3,29.72,NNW,331,1.0,8.0,81,0.00,,,0.34,Wunderground v.1.13,2013-05-24 19:50:00,
2013-05-24 15:55:00,65.9,59.6,29.72,North,355,1.0,1.0,80,0.00,,,0.34,Wunderground v.1.13,2013-05-24 19:55:00,
2013-05-24 16:05:00,65.8,59.8,29.72,NNW,343,1.0,1.0,81,0.00,,,0.34,Wunderground v.1.13,2013-05-24 20:05:00,
2013-05-24 16:10:00,65.7,59.7,29.73,NW,317,1.0,8.0,81,0.00,,,0.34,Wunderground v.1.13,2013-05-24 20:10:00,
2013-05-24 16:15:00,65.2,58.9,29.73,South,173,1.0,8.0,80,0.00,,,0.34,Wunderground v.1.13,2013-05-24 20:15:00,
2013-05-24 16:25:00,63.7,58.1,29.73,WNW,298,1.0,1.0,82,0.00,,,0.34,Wunderground v.1.13,2013-05-24 20:25:00,
2013-05-24 16:30:00,63.2,57.6,29.73,NW,326,1.0,8.0,82,0.00,,,0.34,Wunderground v.1.13,2013-05-24 20:30:00,
2013-05-24 16:35:00,62.5,56.9,29.73,NW,326,1.0,8.0,82,0.00,,,0.34,Wunderground v.1.13,2013-05-24 20:35:00,
2013-05-24 16:45:00,62.1,56.9,29.73,NNW,327,0.0,8.0,83,0.00,,,0.34,Wunderground v.1.13,2013-05-24 20:45:00,
2013-05-24 16:50:00,61.9,56.7,29.73,NNW,329,0.0,8.0,83,0.00,,,0.34,Wunderground v.1.13,2013-05-24 20:50:00,
2013-05-24 16:55:00,61.8,56.6,29.73,NNW,327,0.0,8.0,83,0.00,,,0.34,Wunderground v.1.13,2013-05-24 20:55:00,
2013-05-24 17:05:00,61.4,56.2,29.74,NNW,331,0.0,8.0,83,0.00,,,0.34,Wunderground v.1.13,2013-05-24 21:05:00,
2013-05-24 17:10:00,61.1,55.9,29.74,NNW,328,1.0,8.0,83,0.00,,,0.34,Wunderground v.1.13,2013-05-24 21:10:00,
2013-05-24 17:15:00,60.6,55.4,29.74,NNW,328,1.0,8.0,83,0.00,,,0.34,Wunderground v.1.13,2013-05-24 21:15:00,
2013-05-24 17:20:00,60.2,55.3,29.74,NNW,328,0.0,8.0,84,0.00,,,0.34,Wunderground v.1.13,2013-05-24 21:20:00,
2013-05-24 17:30:00,59.6,55.1,29.75,North,349,1.0,1.0,85,0.00,,,0.34,Wunderground v.1.13,2013-05-24 21:30:00,
2013-05-24 17:35:00,59.3,55.4,29.75,North,355,1.0,8.0,87,0.00,,,0.34,Wunderground v.1.13,2013-05-24 21:35:00,
2013-05-24 17:40:00,58.9,54.7,29.75,WNW,291,1.0,1.0,86,0.00,,,0.34,Wunderground v.1.13,2013-05-24 21:40:00,
2013-05-24 17:50:00,58.2,54.0,29.75,WNW,291,0.0,8.0,86,0.00,,,0.34,Wunderground v.1.13,2013-05-24 21:50:00,
2013-05-24 17:55:00,58.2,54.3,29.75,NW,319,0.0,8.0,87,0.00,,,0.34,Wunderground v.1.13,2013-05-24 21:55:00,
2013-05-24 18:00:00,58.1,53.9,29.75,NW,319,0.0,8.0,86,0.00,,,0.34,Wunderground v.1.13,2013-05-24 22:00:00,
2013-05-24 18:10:00,58.0,53.5,29.75,NW,319,0.0,8.0,85,0.00,,,0.34,Wunderground v.1.13,2013-05-24 22:10:00,
2013-05-24 18:20:00,57.7,52.9,29.75,NNW,340,0.0,8.0,84,0.00,,,0.34,Wunderground v.1.13,2013-05-24 22:20:00,
2013-05-24 18:25:00,57.5,52.7,29.75,NNW,340,1.0,1.0,84,0.00,,,0.34,Wunderground v.1.13,2013-05-24 22:25:00,
2013-05-24 18:35:00,57.4,52.9,29.76,NNW,336,0.0,8.0,85,0.00,,,0.34,Wunderground v.1.13,2013-05-24 22:35:00,
2013-05-24 18:40:00,57.3,52.5,29.77,NNW,336,0.0,8.0,84,0.00,,,0.34,Wunderground v.1.13,2013-05-24 22:40:00,
2013-05-24 18:45:00,57.1,52.3,29.77,NNW,336,0.0,8.0,84,0.00,,,0.34,Wunderground v.1.13,2013-05-24 22:45:00,
2013-05-24 18:55:00,57.0,51.9,29.77,NNW,336,0.0,8.0,83,0.00,,,0.34,Wunderground v.1.13,2013-05-24 22:55:00,
2013-05-24 19:00:00,57.0,51.6,29.77,NNW,336,0.0,8.0,82,0.00,,,0.34,Wunderground v.1.13,2013-05-24 23:00:00,
2013-05-24 19:05:00,57.0,51.6,29.78,SW,229,0.0,8.0,82,0.00,,,0.34,Wunderground v.1.13,2013-05-24 23:05:00,
2013-05-24 19:15:00,56.8,50.7,29.78,NW,319,0.0,8.0,80,0.00,,,0.34,Wunderground v.1.13,2013-05-24 23:15:00,
2013-05-24 19:20:00,56.7,51.3,29.79,NW,319,0.0,8.0,82,0.00,,,0.34,Wunderground v.1.13,2013-05-24 23:20:00,
2013-05-24 19:25:00,56.6,51.5,29.79,NW,319,0.0,8.0,83,0.00,,,0.34,Wunderground v.1.13,2013-05-24 23:25:00,
2013-05-24 19:35:00,56.3,51.8,29.79,NW,319,0.0,8.0,85,0.00,,,0.34,Wunderground v.1.13,2013-05-24 23:35:00,
2013-05-24 19:40:00,56.0,51.9,29.80,NNW,327,0.0,8.0,86,0.25,,,0.36,Wunderground v.1.13,2013-05-24 23:40:00,
2013-05-24 19:45:00,55.6,51.5,29.80,North,360,1.0,1.0,86,0.17,,,0.37,Wunderground v.1.13,2013-05-24 23:45:00,
2013-05-24 19:50:00,55.4,51.6,29.80,North,5,0.0,8.0,87,0.24,,,0.39,Wunderground v.1.13,2013-05-24 23:50:00,
2013-05-24 20:00:00,54.8,51.3,29.80,North,5,0.0,8.0,88,0.22,,,0.43,Wunderground v.1.13,2013-05-25 00:00:00,
2013-05-24 20:05:00,54.4,51.2,29.80,North,5,0.0,8.0,89,0.21,,,0.45,Wunderground v.1.13,2013-05-25 00:05:00,
2013-05-24 20:10:00,54.0,50.8,29.80,North,360,0.0,8.0,89,0.16,,,0.46,Wunderground v.1.13,2013-05-25 00:10:00,
2013-05-24 20:20:00,53.4,50.5,29.81,North,360,0.0,8.0,90,0.08,,,0.47,Wunderground v.1.13,2013-05-25 00:20:00,
2013-05-24 20:25:00,53.1,50.2,29.81,North,360,0.0,8.0,90,0.05,,,0.47,Wunderground v.1.13,2013-05-25 00:25:00,
2013-05-24 20:30:00,52.8,49.9,29.81,North,360,0.0,8.0,90,0.04,,,0.47,Wunderground v.1.13,2013-05-25 00:30:00,
2013-05-24 20:40:00,52.4,49.8,29.81,North,5,0.0,8.0,91,0.00,,,0.47,Wunderground v.1.13,2013-05-25 00:40:00,
2013-05-24 20:45:00,52.2,49.9,29.80,North,360,0.0,8.0,92,0.00,,,0.47,Wunderground v.1.13,2013-05-25 00:45:00,
2013-05-24 20:50:00,52.0,49.7,29.81,North,5,0.0,8.0,92,0.00,,,0.47,Wunderground v.1.13,2013-05-25 00:50:00,
2013-05-24 21:00:00,51.6,49.4,29.81,North,360,0.0,8.0,92,0.00,,,0.48,Wunderground v.1.13,2013-05-25 01:00:00,
2013-05-24 21:05:00,51.5,49.3,29.81,North,360,0.0,8.0,92,0.00,,,0.48,Wunderground v.1.13,2013-05-25 01:05:00,
2013-05-24 21:10:00,51.4,49.4,29.81,North,5,0.0,8.0,93,0.17,,,0.50,Wunderground v.1.13,2013-05-25 01:10:00,
2013-05-24 21:15:00,51.2,49.2,29.82,North,5,0.0,8.0,93,0.57,,,0.54,Wunderground v.1.13,2013-05-25 01:15:00,
2013-05-24 21:25:00,50.8,48.8,29.82,North,9,0.0,8.0,93,0.06,,,0.55,Wunderground v.1.13,2013-05-25 01:25:00,
2013-05-24 21:30:00,50.6,48.7,29.82,North,9,0.0,8.0,93,0.06,,,0.55,Wunderground v.1.13,2013-05-25 01:30:00,
2013-05-24 21:35:00,50.3,48.4,29.82,North,360,0.0,8.0,93,0.05,,,0.55,Wunderground v.1.13,2013-05-25 01:35:00,
2013-05-24 21:40:00,50.1,48.2,29.82,North,360,0.0,8.0,93,0.04,,,0.56,Wunderground v.1.13,2013-05-25 01:40:00,
2013-05-24 21:50:00,49.8,47.9,29.82,North,5,0.0,8.0,93,0.04,,,0.56,Wunderground v.1.13,2013-05-25 01:50:00,
2013-05-24 21:55:00,49.7,47.8,29.82,North,360,0.0,8.0,93,0.04,,,0.56,Wunderground v.1.13,2013-05-25 01:55:00,
2013-05-24 22:05:00,49.5,47.8,29.83,North,360,0.0,8.0,94,0.00,,,0.57,Wunderground v.1.13,2013-05-25 02:05:00,
2013-05-24 22:10:00,49.4,47.7,29.82,North,355,0.0,8.0,94,0.00,,,0.57,Wunderground v.1.13,2013-05-25 02:10:00,
2013-05-24 22:15:00,49.3,47.6,29.82,North,355,0.0,8.0,94,0.00,,,0.57,Wunderground v.1.13,2013-05-25 02:15:00,
2013-05-24 22:20:00,49.2,47.5,29.82,North,355,1.0,1.0,94,0.00,,,0.57,Wunderground v.1.13,2013-05-25 02:20:00,
2013-05-24 22:30:00,49.0,47.3,29.83,North,355,0.0,8.0,94,0.00,,,0.58,Wunderground v.1.13,2013-05-25 02:30:00,
2013-05-24 22:35:00,49.0,47.3,29.83,North,355,0.0,8.0,94,0.00,,,0.58,Wunderground v.1.13,2013-05-25 02:35:00,
2013-05-24 22:40:00,48.9,47.2,29.82,North,355,0.0,8.0,94,0.00,,,0.58,Wunderground v.1.13,2013-05-25 02:40:00,
2013-05-24 22:50:00,48.9,47.5,29.82,North,355,0.0,8.0,95,0.00,,,0.59,Wunderground v.1.13,2013-05-25 02:50:00,
2013-05-24 22:55:00,49.0,47.6,29.83,North,355,0.0,8.0,95,0.00,,,0.59,Wunderground v.1.13,2013-05-25 02:55:00,
2013-05-24 23:00:00,48.9,47.5,29.83,North,351,0.0,8.0,95,0.00,,,0.59,Wunderground v.1.13,2013-05-25 03:00:00,
2013-05-24 23:10:00,48.8,47.4,29.83,North,351,0.0,8.0,95,0.00,,,0.60,Wunderground v.1.13,2013-05-25 03:10:00,
2013-05-24 23:15:00,48.8,47.4,29.83,North,350,0.0,8.0,95,0.00,,,0.60,Wunderground v.1.13,2013-05-25 03:15:00,
2013-05-24 23:20:00,48.7,47.3,29.82,North,350,0.0,8.0,95,0.06,,,0.61,Wunderground v.1.13,2013-05-25 03:20:00,
2013-05-24 23:25:00,48.7,47.3,29.82,North,350,0.0,8.0,95,0.12,,,0.62,Wunderground v.1.13,2013-05-25 03:25:00,
2013-05-24 23:35:00,48.6,47.2,29.82,North,350,0.0,8.0,95,0.05,,,0.62,Wunderground v.1.13,2013-05-25 03:35:00,
2013-05-24 23:40:00,48.6,47.2,29.82,North,350,0.0,8.0,95,0.00,,,0.62,Wunderground v.1.13,2013-05-25 03:40:00,
2013-05-24 23:45:00,48.5,47.1,29.82,WNW,298,0.0,8.0,95,0.00,,,0.62,Wunderground v.1.13,2013-05-25 03:45:00,
2013-05-24 23:55:00,48.3,47.2,29.82,NW,304,0.0,8.0,96,0.00,,,0.63,Wunderground v.1.13,2013-05-25 03:55:00,